Terminal Aerodrome Forecast
Issued by NWS Topeka, KS

Home | Current Version | Previous Version | Text Only | Print | Product List | Glossary Off
Versions: 1 2 3 4 5 6 7 8 9 10 11 12 13 14 15 16 17 18 19 20 21 22 23 24

000
FTUS43 KTOP 171900 AAA
TAFTOP
TAF AMD
KTOP 171904Z 1719/1818 06004KT P6SM OVC021
     FM172100 07006KT P6SM SCT025
     FM181000 09006KT 6SM BR SCT150
      TEMPO 1811/1814 3SM BR=

USA.gov is the U.S. government's official web portal to all federal, state and local government web resources and services.